sensor_id;sensor_type;location;lat;lon;timestamp;P1;durP1;ratioP1;P2;durP2;ratioP2
10389;SDS011;5241;47.830;12.972;2023-04-02T00:05:02;3.27;;;2.90;;
10389;SDS011;5241;47.830;12.972;2023-04-02T00:07:54;5.57;;;3.07;;
10389;SDS011;5241;47.830;12.972;2023-04-02T00:15:45;4.60;;;2.67;;
10389;SDS011;5241;47.830;12.972;2023-04-02T00:18:16;3.80;;;2.33;;
10389;SDS011;5241;47.830;12.972;2023-04-02T00:20:48;4.20;;;2.40;;
10389;SDS011;5241;47.830;12.972;2023-04-02T00:23:47;2.70;;;1.53;;
10389;SDS011;5241;47.830;12.972;2023-04-02T00:28:45;2.00;;;1.47;;
10389;SDS011;5241;47.830;12.972;2023-04-02T00:31:11;1.70;;;1.13;;
10389;SDS011;5241;47.830;12.972;2023-04-02T00:33:37;1.90;;;1.00;;
10389;SDS011;5241;47.830;12.972;2023-04-02T00:36:04;1.10;;;0.93;;
10389;SDS011;5241;47.830;12.972;2023-04-02T00:38:32;1.70;;;1.23;;
10389;SDS011;5241;47.830;12.972;2023-04-02T00:41:00;1.60;;;1.10;;
10389;SDS011;5241;47.830;12.972;2023-04-02T00:43:27;1.73;;;0.90;;
10389;SDS011;5241;47.830;12.972;2023-04-02T00:45:57;2.10;;;1.17;;
10389;SDS011;5241;47.830;12.972;2023-04-02T00:50:56;1.47;;;1.37;;
10389;SDS011;5241;47.830;12.972;2023-04-02T00:53:32;1.30;;;1.20;;
10389;SDS011;5241;47.830;12.972;2023-04-02T00:55:59;1.37;;;1.20;;
10389;SDS011;5241;47.830;12.972;2023-04-02T00:58:28;2.97;;;1.30;;
10389;SDS011;5241;47.830;12.972;2023-04-02T01:00:57;3.50;;;1.30;;
10389;SDS011;5241;47.830;12.972;2023-04-02T01:03:27;2.73;;;1.27;;
10389;SDS011;5241;47.830;12.972;2023-04-02T01:06:12;3.10;;;1.00;;
10389;SDS011;5241;47.830;12.972;2023-04-02T01:08:46;1.23;;;0.90;;
10389;SDS011;5241;47.830;12.972;2023-04-02T01:14:09;1.60;;;1.03;;
10389;SDS011;5241;47.830;12.972;2023-04-02T01:22:45;1.37;;;1.03;;
10389;SDS011;5241;47.830;12.972;2023-04-02T01:25:23;1.10;;;1.00;;
10389;SDS011;5241;47.830;12.972;2023-04-02T01:27:59;3.00;;;0.90;;
10389;SDS011;5241;47.830;12.972;2023-04-02T01:30:33;0.83;;;0.83;;
10389;SDS011;5241;47.830;12.972;2023-04-02T01:33:00;2.27;;;0.90;;
10389;SDS011;5241;47.830;12.972;2023-04-02T01:35:26;1.77;;;0.77;;
10389;SDS011;5241;47.830;12.972;2023-04-02T01:38:14;1.90;;;0.80;;
10389;SDS011;5241;47.830;12.972;2023-04-02T01:41:08;3.23;;;1.30;;
10389;SDS011;5241;47.830;12.972;2023-04-02T01:43:51;0.90;;;0.80;;
10389;SDS011;5241;47.830;12.972;2023-04-02T01:46:26;0.70;;;0.57;;
10389;SDS011;5241;47.830;12.972;2023-04-02T01:48:56;1.00;;;0.73;;
10389;SDS011;5241;47.830;12.972;2023-04-02T01:51:30;0.83;;;0.60;;
10389;SDS011;5241;47.830;12.972;2023-04-02T01:53:58;0.57;;;0.47;;
10389;SDS011;5241;47.830;12.972;2023-04-02T01:56:26;0.60;;;0.60;;
10389;SDS011;5241;47.830;12.972;2023-04-02T01:58:52;1.13;;;0.60;;
10389;SDS011;5241;47.830;12.972;2023-04-02T02:01:18;1.77;;;0.70;;
10389;SDS011;5241;47.830;12.972;2023-04-02T02:03:47;0.40;;;0.40;;
10389;SDS011;5241;47.830;12.972;2023-04-02T02:06:15;0.93;;;0.50;;
10389;SDS011;5241;47.830;12.972;2023-04-02T02:11:20;0.70;;;0.60;;
10389;SDS011;5241;47.830;12.972;2023-04-02T02:13:49;0.73;;;0.50;;
10389;SDS011;5241;47.830;12.972;2023-04-02T02:16:18;1.30;;;0.50;;
10389;SDS011;5241;47.830;12.972;2023-04-02T02:18:45;0.60;;;0.50;;
10389;SDS011;5241;47.830;12.972;2023-04-02T02:21:20;1.17;;;0.67;;
10389;SDS011;5241;47.830;12.972;2023-04-02T02:24:16;1.10;;;0.80;;
10389;SDS011;5241;47.830;12.972;2023-04-02T02:26:49;0.80;;;0.60;;
10389;SDS011;5241;47.830;12.972;2023-04-02T02:29:21;1.57;;;0.60;;
10389;SDS011;5241;47.830;12.972;2023-04-02T02:31:51;1.77;;;0.77;;
10389;SDS011;5241;47.830;12.972;2023-04-02T02:34:19;3.27;;;2.20;;
10389;SDS011;5241;47.830;12.972;2023-04-02T02:36:50;1.80;;;1.17;;
10389;SDS011;5241;47.830;12.972;2023-04-02T02:39:24;0.90;;;0.70;;
10389;SDS011;5241;47.830;12.972;2023-04-02T02:42:09;1.17;;;0.80;;
10389;SDS011;5241;47.830;12.972;2023-04-02T02:44:46;0.93;;;0.60;;
10389;SDS011;5241;47.830;12.972;2023-04-02T02:47:29;1.70;;;0.90;;
10389;SDS011;5241;47.830;12.972;2023-04-02T02:50:03;2.77;;;1.20;;
10389;SDS011;5241;47.830;12.972;2023-04-02T02:52:35;1.93;;;0.80;;
10389;SDS011;5241;47.830;12.972;2023-04-02T02:55:05;1.40;;;0.60;;
10389;SDS011;5241;47.830;12.972;2023-04-02T02:57:34;1.20;;;0.70;;
10389;SDS011;5241;47.830;12.972;2023-04-02T03:00:04;0.83;;;0.80;;
10389;SDS011;5241;47.830;12.972;2023-04-02T03:02:34;1.00;;;0.57;;
10389;SDS011;5241;47.830;12.972;2023-04-02T03:05:01;0.73;;;0.70;;
10389;SDS011;5241;47.830;12.972;2023-04-02T03:07:28;1.50;;;0.60;;
10389;SDS011;5241;47.830;12.972;2023-04-02T03:10:02;1.03;;;0.70;;
10389;SDS011;5241;47.830;12.972;2023-04-02T03:15:40;0.97;;;0.80;;
10389;SDS011;5241;47.830;12.972;2023-04-02T03:21:13;0.43;;;0.40;;
10389;SDS011;5241;47.830;12.972;2023-04-02T03:23:56;0.50;;;0.50;;
10389;SDS011;5241;47.830;12.972;2023-04-02T03:26:31;1.23;;;0.60;;
10389;SDS011;5241;47.830;12.972;2023-04-02T03:31:47;0.93;;;0.70;;
10389;SDS011;5241;47.830;12.972;2023-04-02T03:34:23;0.93;;;0.57;;
10389;SDS011;5241;47.830;12.972;2023-04-02T03:42:55;1.67;;;0.57;;
10389;SDS011;5241;47.830;12.972;2023-04-02T03:45:28;1.70;;;0.50;;
10389;SDS011;5241;47.830;12.972;2023-04-02T03:48:26;2.20;;;0.60;;
10389;SDS011;5241;47.830;12.972;2023-04-02T03:53:29;1.70;;;0.70;;
10389;SDS011;5241;47.830;12.972;2023-04-02T03:55:56;2.40;;;0.80;;
10389;SDS011;5241;47.830;12.972;2023-04-02T03:58:27;1.43;;;0.80;;
10389;SDS011;5241;47.830;12.972;2023-04-02T04:01:23;0.60;;;0.43;;
10389;SDS011;5241;47.830;12.972;2023-04-02T04:03:54;1.70;;;0.63;;
10389;SDS011;5241;47.830;12.972;2023-04-02T04:06:27;1.40;;;0.43;;
10389;SDS011;5241;47.830;12.972;2023-04-02T04:11:25;0.90;;;0.50;;
10389;SDS011;5241;47.830;12.972;2023-04-02T04:24:39;1.70;;;0.67;;
10389;SDS011;5241;47.830;12.972;2023-04-02T04:32:30;1.03;;;0.80;;
10389;SDS011;5241;47.830;12.972;2023-04-02T04:37:54;1.33;;;0.90;;
10389;SDS011;5241;47.830;12.972;2023-04-02T04:40:30;0.70;;;0.50;;
10389;SDS011;5241;47.830;12.972;2023-04-02T04:43:12;1.17;;;0.80;;
10389;SDS011;5241;47.830;12.972;2023-04-02T04:45:49;1.20;;;0.77;;
10389;SDS011;5241;47.830;12.972;2023-04-02T04:48:31;2.53;;;0.70;;
10389;SDS011;5241;47.830;12.972;2023-04-02T04:51:19;1.87;;;0.70;;
10389;SDS011;5241;47.830;12.972;2023-04-02T04:53:46;2.80;;;1.00;;
10389;SDS011;5241;47.830;12.972;2023-04-02T04:56:15;1.00;;;0.70;;
10389;SDS011;5241;47.830;12.972;2023-04-02T04:58:45;0.93;;;0.80;;
10389;SDS011;5241;47.830;12.972;2023-04-02T05:01:17;1.23;;;0.77;;
10389;SDS011;5241;47.830;12.972;2023-04-02T05:04:15;2.73;;;0.80;;
10389;SDS011;5241;47.830;12.972;2023-04-02T05:07:12;1.37;;;0.80;;
10389;SDS011;5241;47.830;12.972;2023-04-02T05:09:44;1.63;;;0.70;;
10389;SDS011;5241;47.830;12.972;2023-04-02T05:17:49;0.97;;;0.80;;
10389;SDS011;5241;47.830;12.972;2023-04-02T05:20:39;1.47;;;0.70;;
10389;SDS011;5241;47.830;12.972;2023-04-02T05:23:20;2.20;;;0.90;;
10389;SDS011;5241;47.830;12.972;2023-04-02T05:29:00;2.40;;;1.00;;
10389;SDS011;5241;47.830;12.972;2023-04-02T05:31:39;3.27;;;1.00;;
10389;SDS011;5241;47.830;12.972;2023-04-02T05:34:09;2.47;;;1.20;;
10389;SDS011;5241;47.830;12.972;2023-04-02T05:36:36;1.80;;;0.90;;
10389;SDS011;5241;47.830;12.972;2023-04-02T05:39:02;1.30;;;0.93;;
10389;SDS011;5241;47.830;12.972;2023-04-02T05:41:38;2.60;;;0.90;;
10389;SDS011;5241;47.830;12.972;2023-04-02T05:47:20;1.07;;;0.80;;
10389;SDS011;5241;47.830;12.972;2023-04-02T05:49:49;1.80;;;0.90;;
10389;SDS011;5241;47.830;12.972;2023-04-02T05:52:24;1.63;;;0.70;;
10389;SDS011;5241;47.830;12.972;2023-04-02T05:57:48;3.13;;;1.00;;
10389;SDS011;5241;47.830;12.972;2023-04-02T06:00:17;2.37;;;1.00;;
10389;SDS011;5241;47.830;12.972;2023-04-02T06:02:51;1.67;;;1.20;;
10389;SDS011;5241;47.830;12.972;2023-04-02T06:05:34;1.73;;;0.70;;
10389;SDS011;5241;47.830;12.972;2023-04-02T06:08:23;0.90;;;0.90;;
10389;SDS011;5241;47.830;12.972;2023-04-02T06:10:59;3.33;;;1.17;;
10389;SDS011;5241;47.830;12.972;2023-04-02T06:13:32;0.80;;;0.80;;
10389;SDS011;5241;47.830;12.972;2023-04-02T06:15:58;1.20;;;0.80;;
10389;SDS011;5241;47.830;12.972;2023-04-02T06:18:25;2.53;;;1.20;;
10389;SDS011;5241;47.830;12.972;2023-04-02T06:20:54;2.67;;;1.07;;
10389;SDS011;5241;47.830;12.972;2023-04-02T06:26:02;1.47;;;0.90;;
10389;SDS011;5241;47.830;12.972;2023-04-02T06:28:47;1.30;;;1.00;;
10389;SDS011;5241;47.830;12.972;2023-04-02T06:31:24;1.93;;;0.70;;
10389;SDS011;5241;47.830;12.972;2023-04-02T06:33:54;1.43;;;1.07;;
10389;SDS011;5241;47.830;12.972;2023-04-02T06:36:21;3.03;;;1.30;;
10389;SDS011;5241;47.830;12.972;2023-04-02T06:38:49;1.13;;;0.90;;
10389;SDS011;5241;47.830;12.972;2023-04-02T06:41:19;2.33;;;1.23;;
10389;SDS011;5241;47.830;12.972;2023-04-02T06:43:49;1.23;;;0.70;;
10389;SDS011;5241;47.830;12.972;2023-04-02T06:48:49;0.87;;;0.83;;
10389;SDS011;5241;47.830;12.972;2023-04-02T06:51:20;3.57;;;1.20;;
10389;SDS011;5241;47.830;12.972;2023-04-02T06:53:48;2.33;;;1.90;;
10389;SDS011;5241;47.830;12.972;2023-04-02T06:59:03;3.37;;;1.90;;
10389;SDS011;5241;47.830;12.972;2023-04-02T07:01:31;1.93;;;1.73;;
10389;SDS011;5241;47.830;12.972;2023-04-02T07:04:01;2.03;;;1.60;;
10389;SDS011;5241;47.830;12.972;2023-04-02T07:06:26;3.07;;;2.43;;
10389;SDS011;5241;47.830;12.972;2023-04-02T07:08:52;2.80;;;2.40;;
10389;SDS011;5241;47.830;12.972;2023-04-02T07:11:18;5.47;;;1.90;;
10389;SDS011;5241;47.830;12.972;2023-04-02T07:13:45;1.60;;;1.40;;
10389;SDS011;5241;47.830;12.972;2023-04-02T07:16:19;3.20;;;1.90;;
10389;SDS011;5241;47.830;12.972;2023-04-02T07:18:47;6.23;;;3.80;;
10389;SDS011;5241;47.830;12.972;2023-04-02T07:21:13;9.27;;;5.47;;
10389;SDS011;5241;47.830;12.972;2023-04-02T07:23:39;5.07;;;3.10;;
10389;SDS011;5241;47.830;12.972;2023-04-02T07:26:06;14.87;;;10.13;;
10389;SDS011;5241;47.830;12.972;2023-04-02T07:28:32;4.80;;;3.07;;
10389;SDS011;5241;47.830;12.972;2023-04-02T07:30:58;2.10;;;1.30;;
10389;SDS011;5241;47.830;12.972;2023-04-02T07:33:25;2.93;;;2.30;;
10389;SDS011;5241;47.830;12.972;2023-04-02T07:35:53;2.53;;;1.70;;
10389;SDS011;5241;47.830;12.972;2023-04-02T07:38:20;1.97;;;1.20;;
10389;SDS011;5241;47.830;12.972;2023-04-02T07:40:46;2.97;;;1.97;;
10389;SDS011;5241;47.830;12.972;2023-04-02T07:43:11;2.13;;;1.90;;
10389;SDS011;5241;47.830;12.972;2023-04-02T07:45:37;2.97;;;2.20;;
10389;SDS011;5241;47.830;12.972;2023-04-02T07:48:06;2.13;;;1.70;;
10389;SDS011;5241;47.830;12.972;2023-04-02T07:50:33;1.97;;;1.50;;
10389;SDS011;5241;47.830;12.972;2023-04-02T07:52:59;1.53;;;1.10;;
10389;SDS011;5241;47.830;12.972;2023-04-02T07:55:24;2.23;;;1.53;;
10389;SDS011;5241;47.830;12.972;2023-04-02T07:57:54;2.03;;;1.20;;
10389;SDS011;5241;47.830;12.972;2023-04-02T08:00:21;1.37;;;1.20;;
10389;SDS011;5241;47.830;12.972;2023-04-02T08:02:48;2.00;;;1.63;;
10389;SDS011;5241;47.830;12.972;2023-04-02T08:05:15;1.50;;;1.20;;
10389;SDS011;5241;47.830;12.972;2023-04-02T08:07:42;2.10;;;1.60;;
10389;SDS011;5241;47.830;12.972;2023-04-02T08:10:09;1.57;;;1.00;;
10389;SDS011;5241;47.830;12.972;2023-04-02T08:12:36;3.77;;;2.13;;
10389;SDS011;5241;47.830;12.972;2023-04-02T08:15:02;1.83;;;1.17;;
10389;SDS011;5241;47.830;12.972;2023-04-02T08:17:29;1.93;;;1.20;;
10389;SDS011;5241;47.830;12.972;2023-04-02T08:19:56;1.00;;;0.90;;
10389;SDS011;5241;47.830;12.972;2023-04-02T08:22:25;1.60;;;1.00;;
10389;SDS011;5241;47.830;12.972;2023-04-02T08:24:51;1.03;;;0.80;;
10389;SDS011;5241;47.830;12.972;2023-04-02T08:27:17;2.20;;;1.60;;
10389;SDS011;5241;47.830;12.972;2023-04-02T08:29:43;2.23;;;1.40;;
10389;SDS011;5241;47.830;12.972;2023-04-02T08:32:09;2.07;;;1.70;;
10389;SDS011;5241;47.830;12.972;2023-04-02T08:34:39;1.37;;;1.23;;
10389;SDS011;5241;47.830;12.972;2023-04-02T08:37:05;1.87;;;1.37;;
10389;SDS011;5241;47.830;12.972;2023-04-02T08:39:30;1.43;;;1.00;;
10389;SDS011;5241;47.830;12.972;2023-04-02T08:47:48;2.67;;;1.20;;
10389;SDS011;5241;47.830;12.972;2023-04-02T08:52:54;2.33;;;1.80;;
10389;SDS011;5241;47.830;12.972;2023-04-02T08:55:29;1.77;;;1.17;;
10389;SDS011;5241;47.830;12.972;2023-04-02T09:00:34;2.20;;;1.20;;
10389;SDS011;5241;47.830;12.972;2023-04-02T09:03:09;2.30;;;1.00;;
10389;SDS011;5241;47.830;12.972;2023-04-02T09:05:44;2.60;;;1.33;;
10389;SDS011;5241;47.830;12.972;2023-04-02T09:08:16;1.93;;;1.17;;
10389;SDS011;5241;47.830;12.972;2023-04-02T09:13:34;1.87;;;1.60;;
10389;SDS011;5241;47.830;12.972;2023-04-02T09:16:12;2.63;;;2.00;;
10389;SDS011;5241;47.830;12.972;2023-04-02T09:18:39;1.40;;;1.30;;
10389;SDS011;5241;47.830;12.972;2023-04-02T09:24:01;2.00;;;1.47;;
10389;SDS011;5241;47.830;12.972;2023-04-02T09:26:28;1.77;;;1.13;;
10389;SDS011;5241;47.830;12.972;2023-04-02T09:31:35;2.40;;;1.50;;
10389;SDS011;5241;47.830;12.972;2023-04-02T09:34:27;1.10;;;0.80;;
10389;SDS011;5241;47.830;12.972;2023-04-02T09:36:53;2.40;;;1.30;;
10389;SDS011;5241;47.830;12.972;2023-04-02T09:39:21;3.80;;;2.20;;
10389;SDS011;5241;47.830;12.972;2023-04-02T09:41:50;3.10;;;1.37;;
10389;SDS011;5241;47.830;12.972;2023-04-02T09:44:24;2.90;;;1.10;;
10389;SDS011;5241;47.830;12.972;2023-04-02T09:46:57;1.30;;;1.00;;
10389;SDS011;5241;47.830;12.972;2023-04-02T09:49:30;2.37;;;1.40;;
10389;SDS011;5241;47.830;12.972;2023-04-02T09:54:30;4.77;;;2.83;;
10389;SDS011;5241;47.830;12.972;2023-04-02T09:57:00;4.03;;;2.40;;
10389;SDS011;5241;47.830;12.972;2023-04-02T09:59:27;1.83;;;1.40;;
10389;SDS011;5241;47.830;12.972;2023-04-02T10:04:30;2.27;;;1.37;;
10389;SDS011;5241;47.830;12.972;2023-04-02T10:07:09;2.87;;;1.00;;
10389;SDS011;5241;47.830;12.972;2023-04-02T10:10:26;2.10;;;1.40;;
10389;SDS011;5241;47.830;12.972;2023-04-02T10:13:06;1.23;;;1.00;;
10389;SDS011;5241;47.830;12.972;2023-04-02T10:16:01;1.80;;;1.00;;
10389;SDS011;5241;47.830;12.972;2023-04-02T10:21:09;2.03;;;1.50;;
10389;SDS011;5241;47.830;12.972;2023-04-02T10:23:37;1.90;;;1.23;;
10389;SDS011;5241;47.830;12.972;2023-04-02T10:29:08;2.57;;;1.97;;
10389;SDS011;5241;47.830;12.972;2023-04-02T10:34:22;2.30;;;1.50;;
10389;SDS011;5241;47.830;12.972;2023-04-02T10:36:55;2.83;;;1.30;;
10389;SDS011;5241;47.830;12.972;2023-04-02T10:42:25;1.23;;;1.00;;
10389;SDS011;5241;47.830;12.972;2023-04-02T10:50:25;1.60;;;1.30;;
10389;SDS011;5241;47.830;12.972;2023-04-02T10:53:13;1.20;;;1.00;;
10389;SDS011;5241;47.830;12.972;2023-04-02T10:55:46;1.87;;;1.27;;
10389;SDS011;5241;47.830;12.972;2023-04-02T10:58:21;1.30;;;1.00;;
10389;SDS011;5241;47.830;12.972;2023-04-02T11:00:48;2.83;;;1.40;;
10389;SDS011;5241;47.830;12.972;2023-04-02T11:06:02;1.80;;;1.13;;
10389;SDS011;5241;47.830;12.972;2023-04-02T11:08:43;1.67;;;1.20;;
10389;SDS011;5241;47.830;12.972;2023-04-02T11:11:31;1.83;;;1.10;;
10389;SDS011;5241;47.830;12.972;2023-04-02T11:14:11;1.40;;;1.00;;
10389;SDS011;5241;47.830;12.972;2023-04-02T11:16:45;1.50;;;1.10;;
10389;SDS011;5241;47.830;12.972;2023-04-02T11:21:42;2.30;;;1.30;;
10389;SDS011;5241;47.830;12.972;2023-04-02T11:32:40;1.23;;;1.10;;
10389;SDS011;5241;47.830;12.972;2023-04-02T11:37:57;2.00;;;1.00;;
10389;SDS011;5241;47.830;12.972;2023-04-02T11:48:39;1.33;;;1.00;;
10389;SDS011;5241;47.830;12.972;2023-04-02T11:51:45;1.90;;;1.20;;
10389;SDS011;5241;47.830;12.972;2023-04-02T11:54:00;5.40;;;2.47;;
10389;SDS011;5241;47.830;12.972;2023-04-02T11:56:30;2.37;;;1.83;;
10389;SDS011;5241;47.830;12.972;2023-04-02T11:59:23;2.07;;;1.87;;
10389;SDS011;5241;47.830;12.972;2023-04-02T12:05:01;2.37;;;2.00;;
10389;SDS011;5241;47.830;12.972;2023-04-02T12:07:47;3.30;;;2.27;;
10389;SDS011;5241;47.830;12.972;2023-04-02T12:12:51;4.23;;;2.13;;
10389;SDS011;5241;47.830;12.972;2023-04-02T12:20:37;3.40;;;2.70;;
10389;SDS011;5241;47.830;12.972;2023-04-02T12:23:03;3.00;;;2.63;;
10389;SDS011;5241;47.830;12.972;2023-04-02T12:25:29;2.70;;;2.40;;
10389;SDS011;5241;47.830;12.972;2023-04-02T12:28:13;2.53;;;2.20;;
10389;SDS011;5241;47.830;12.972;2023-04-02T12:30:44;3.10;;;1.97;;
10389;SDS011;5241;47.830;12.972;2023-04-02T12:35:39;2.63;;;1.83;;
10389;SDS011;5241;47.830;12.972;2023-04-02T12:40:52;2.20;;;2.00;;
10389;SDS011;5241;47.830;12.972;2023-04-02T12:43:29;2.53;;;2.00;;
10389;SDS011;5241;47.830;12.972;2023-04-02T12:45:58;2.27;;;1.87;;
10389;SDS011;5241;47.830;12.972;2023-04-02T12:48:24;3.87;;;2.20;;
10389;SDS011;5241;47.830;12.972;2023-04-02T12:50:52;2.27;;;2.07;;
10389;SDS011;5241;47.830;12.972;2023-04-02T12:53:19;2.27;;;2.07;;
10389;SDS011;5241;47.830;12.972;2023-04-02T12:55:47;2.77;;;1.87;;
10389;SDS011;5241;47.830;12.972;2023-04-02T12:58:25;2.63;;;1.90;;
10389;SDS011;5241;47.830;12.972;2023-04-02T13:01:12;2.20;;;1.80;;
10389;SDS011;5241;47.830;12.972;2023-04-02T13:06:30;4.40;;;2.50;;
10389;SDS011;5241;47.830;12.972;2023-04-02T13:08:58;2.10;;;1.80;;
10389;SDS011;5241;47.830;12.972;2023-04-02T13:11:40;3.03;;;2.00;;
10389;SDS011;5241;47.830;12.972;2023-04-02T13:14:07;2.67;;;2.43;;
10389;SDS011;5241;47.830;12.972;2023-04-02T13:16:41;4.27;;;2.60;;
10389;SDS011;5241;47.830;12.972;2023-04-02T13:19:27;2.40;;;1.90;;
10389;SDS011;5241;47.830;12.972;2023-04-02T13:21:58;2.60;;;2.00;;
10389;SDS011;5241;47.830;12.972;2023-04-02T13:24:26;1.90;;;1.67;;
10389;SDS011;5241;47.830;12.972;2023-04-02T13:26:55;1.80;;;1.60;;
10389;SDS011;5241;47.830;12.972;2023-04-02T13:29:31;1.87;;;1.67;;
10389;SDS011;5241;47.830;12.972;2023-04-02T13:31:59;2.83;;;2.10;;
10389;SDS011;5241;47.830;12.972;2023-04-02T13:34:28;2.57;;;2.20;;
10389;SDS011;5241;47.830;12.972;2023-04-02T13:36:53;3.57;;;3.27;;
10389;SDS011;5241;47.830;12.972;2023-04-02T13:39:19;2.83;;;1.97;;
10389;SDS011;5241;47.830;12.972;2023-04-02T13:41:46;1.93;;;1.73;;
10389;SDS011;5241;47.830;12.972;2023-04-02T13:44:18;2.13;;;1.40;;
10389;SDS011;5241;47.830;12.972;2023-04-02T13:46:45;3.20;;;1.70;;
10389;SDS011;5241;47.830;12.972;2023-04-02T13:49:11;1.37;;;1.27;;
10389;SDS011;5241;47.830;12.972;2023-04-02T13:51:38;6.97;;;4.50;;
10389;SDS011;5241;47.830;12.972;2023-04-02T13:56:55;3.53;;;1.77;;
10389;SDS011;5241;47.830;12.972;2023-04-02T13:59:22;4.13;;;3.10;;
10389;SDS011;5241;47.830;12.972;2023-04-02T14:01:48;2.80;;;1.57;;
10389;SDS011;5241;47.830;12.972;2023-04-02T14:04:19;2.47;;;2.27;;
10389;SDS011;5241;47.830;12.972;2023-04-02T14:12:25;9.47;;;8.47;;
10389;SDS011;5241;47.830;12.972;2023-04-02T14:15:27;3.83;;;3.27;;
10389;SDS011;5241;47.830;12.972;2023-04-02T14:18:15;3.37;;;3.07;;
10389;SDS011;5241;47.830;12.972;2023-04-02T14:21:00;3.97;;;3.57;;
10389;SDS011;5241;47.830;12.972;2023-04-02T14:23:40;6.67;;;4.03;;
10389;SDS011;5241;47.830;12.972;2023-04-02T14:28:54;3.90;;;3.60;;
10389;SDS011;5241;47.830;12.972;2023-04-02T14:31:32;2.47;;;2.27;;
10389;SDS011;5241;47.830;12.972;2023-04-02T14:36:58;3.27;;;2.87;;
10389;SDS011;5241;47.830;12.972;2023-04-02T14:39:36;3.20;;;2.47;;
10389;SDS011;5241;47.830;12.972;2023-04-02T14:42:19;2.70;;;2.50;;
10389;SDS011;5241;47.830;12.972;2023-04-02T14:44:56;2.30;;;2.10;;
10389;SDS011;5241;47.830;12.972;2023-04-02T14:47:38;3.37;;;3.07;;
10389;SDS011;5241;47.830;12.972;2023-04-02T14:50:12;8.13;;;7.33;;
10389;SDS011;5241;47.830;12.972;2023-04-02T14:52:44;5.50;;;4.63;;
10389;SDS011;5241;47.830;12.972;2023-04-02T14:55:37;3.10;;;2.13;;
10389;SDS011;5241;47.830;12.972;2023-04-02T14:58:07;2.53;;;2.10;;
10389;SDS011;5241;47.830;12.972;2023-04-02T15:00:40;3.10;;;2.40;;
10389;SDS011;5241;47.830;12.972;2023-04-02T15:05:47;5.37;;;4.00;;
10389;SDS011;5241;47.830;12.972;2023-04-02T15:14:43;5.53;;;3.90;;
10389;SDS011;5241;47.830;12.972;2023-04-02T15:16:41;6.53;;;4.07;;
10389;SDS011;5241;47.830;12.972;2023-04-02T15:19:12;3.70;;;3.40;;
10389;SDS011;5241;47.830;12.972;2023-04-02T15:21:46;3.70;;;3.40;;
10389;SDS011;5241;47.830;12.972;2023-04-02T15:30:05;4.20;;;3.83;;
10389;SDS011;5241;47.830;12.972;2023-04-02T15:32:50;4.50;;;3.47;;
10389;SDS011;5241;47.830;12.972;2023-04-02T15:35:21;4.70;;;3.80;;
10389;SDS011;5241;47.830;12.972;2023-04-02T15:40:29;4.50;;;3.10;;
10389;SDS011;5241;47.830;12.972;2023-04-02T15:43:20;3.53;;;2.73;;
10389;SDS011;5241;47.830;12.972;2023-04-02T15:49:32;2.70;;;2.30;;
10389;SDS011;5241;47.830;12.972;2023-04-02T15:55:21;3.80;;;3.40;;
10389;SDS011;5241;47.830;12.972;2023-04-02T15:58:04;2.50;;;2.30;;
10389;SDS011;5241;47.830;12.972;2023-04-02T16:06:47;14.13;;;6.90;;
10389;SDS011;5241;47.830;12.972;2023-04-02T16:09:51;24.87;;;11.83;;
10389;SDS011;5241;47.830;12.972;2023-04-02T16:12:28;16.50;;;8.83;;
10389;SDS011;5241;47.830;12.972;2023-04-02T16:14:58;6.60;;;5.07;;
10389;SDS011;5241;47.830;12.972;2023-04-02T16:17:59;8.67;;;7.87;;
10389;SDS011;5241;47.830;12.972;2023-04-02T16:20:36;7.93;;;7.13;;
10389;SDS011;5241;47.830;12.972;2023-04-02T16:23:10;20.90;;;13.07;;
10389;SDS011;5241;47.830;12.972;2023-04-02T16:25:56;15.53;;;9.70;;
10389;SDS011;5241;47.830;12.972;2023-04-02T16:28:28;4.33;;;3.00;;
10389;SDS011;5241;47.830;12.972;2023-04-02T16:31:06;3.67;;;2.40;;
10389;SDS011;5241;47.830;12.972;2023-04-02T16:33:55;3.80;;;3.40;;
10389;SDS011;5241;47.830;12.972;2023-04-02T16:36:34;3.57;;;2.80;;
10389;SDS011;5241;47.830;12.972;2023-04-02T16:39:16;6.20;;;4.40;;
10389;SDS011;5241;47.830;12.972;2023-04-02T16:41:51;5.80;;;4.57;;
10389;SDS011;5241;47.830;12.972;2023-04-02T16:47:21;3.40;;;3.10;;
10389;SDS011;5241;47.830;12.972;2023-04-02T16:56:00;4.33;;;3.57;;
10389;SDS011;5241;47.830;12.972;2023-04-02T16:58:20;4.40;;;4.00;;
10389;SDS011;5241;47.830;12.972;2023-04-02T17:03:55;5.67;;;4.77;;
10389;SDS011;5241;47.830;12.972;2023-04-02T17:06:52;4.50;;;4.10;;
10389;SDS011;5241;47.830;12.972;2023-04-02T17:09:50;3.43;;;3.13;;
10389;SDS011;5241;47.830;12.972;2023-04-02T17:12:20;4.30;;;3.50;;
10389;SDS011;5241;47.830;12.972;2023-04-02T17:15:00;6.07;;;4.77;;
10389;SDS011;5241;47.830;12.972;2023-04-02T17:17:31;6.40;;;5.47;;
10389;SDS011;5241;47.830;12.972;2023-04-02T17:19:57;5.77;;;3.97;;
10389;SDS011;5241;47.830;12.972;2023-04-02T17:22:25;5.30;;;4.37;;
10389;SDS011;5241;47.830;12.972;2023-04-02T17:24:57;2.80;;;2.17;;
10389;SDS011;5241;47.830;12.972;2023-04-02T17:30:01;3.53;;;2.97;;
10389;SDS011;5241;47.830;12.972;2023-04-02T17:32:36;2.60;;;2.40;;
10389;SDS011;5241;47.830;12.972;2023-04-02T17:35:19;2.20;;;1.67;;
10389;SDS011;5241;47.830;12.972;2023-04-02T17:46:35;1.57;;;1.47;;
10389;SDS011;5241;47.830;12.972;2023-04-02T17:49:10;2.47;;;1.90;;
10389;SDS011;5241;47.830;12.972;2023-04-02T17:51:50;2.60;;;2.10;;
10389;SDS011;5241;47.830;12.972;2023-04-02T17:54:37;6.77;;;4.07;;
10389;SDS011;5241;47.830;12.972;2023-04-02T17:57:27;1.67;;;1.43;;
10389;SDS011;5241;47.830;12.972;2023-04-02T18:03:08;2.70;;;2.00;;
10389;SDS011;5241;47.830;12.972;2023-04-02T18:06:23;4.23;;;3.53;;
10389;SDS011;5241;47.830;12.972;2023-04-02T18:08:44;5.53;;;4.07;;
10389;SDS011;5241;47.830;12.972;2023-04-02T18:11:23;7.43;;;6.37;;
10389;SDS011;5241;47.830;12.972;2023-04-02T18:13:56;15.40;;;13.17;;
10389;SDS011;5241;47.830;12.972;2023-04-02T18:16:31;13.97;;;11.07;;
10389;SDS011;5241;47.830;12.972;2023-04-02T18:19:06;12.93;;;9.43;;
10389;SDS011;5241;47.830;12.972;2023-04-02T18:21:41;10.67;;;8.40;;
10389;SDS011;5241;47.830;12.972;2023-04-02T18:30:13;6.17;;;5.40;;
10389;SDS011;5241;47.830;12.972;2023-04-02T18:33:34;4.77;;;4.20;;
10389;SDS011;5241;47.830;12.972;2023-04-02T18:35:49;6.10;;;4.10;;
10389;SDS011;5241;47.830;12.972;2023-04-02T18:46:50;3.10;;;2.40;;
10389;SDS011;5241;47.830;12.972;2023-04-02T18:51:43;10.47;;;6.17;;
10389;SDS011;5241;47.830;12.972;2023-04-02T18:54:21;5.10;;;3.40;;
10389;SDS011;5241;47.830;12.972;2023-04-02T18:56:56;4.20;;;3.47;;
10389;SDS011;5241;47.830;12.972;2023-04-02T19:04:46;3.23;;;2.77;;
10389;SDS011;5241;47.830;12.972;2023-04-02T19:07:22;3.23;;;2.93;;
10389;SDS011;5241;47.830;12.972;2023-04-02T19:09:50;4.43;;;3.40;;
10389;SDS011;5241;47.830;12.972;2023-04-02T19:12:17;3.63;;;3.07;;
10389;SDS011;5241;47.830;12.972;2023-04-02T19:14:45;4.07;;;3.00;;
10389;SDS011;5241;47.830;12.972;2023-04-02T19:25:51;4.90;;;4.23;;
10389;SDS011;5241;47.830;12.972;2023-04-02T19:28:35;4.73;;;4.33;;
10389;SDS011;5241;47.830;12.972;2023-04-02T19:36:22;6.97;;;5.90;;
10389;SDS011;5241;47.830;12.972;2023-04-02T19:39:04;7.10;;;6.13;;
10389;SDS011;5241;47.830;12.972;2023-04-02T19:41:53;6.63;;;5.17;;
10389;SDS011;5241;47.830;12.972;2023-04-02T19:44:27;6.13;;;5.50;;
10389;SDS011;5241;47.830;12.972;2023-04-02T19:46:53;6.70;;;5.60;;
10389;SDS011;5241;47.830;12.972;2023-04-02T19:49:25;8.07;;;7.17;;
10389;SDS011;5241;47.830;12.972;2023-04-02T19:51:53;6.63;;;5.97;;
10389;SDS011;5241;47.830;12.972;2023-04-02T19:54:19;8.80;;;6.40;;
10389;SDS011;5241;47.830;12.972;2023-04-02T19:56:45;8.10;;;6.63;;
10389;SDS011;5241;47.830;12.972;2023-04-02T19:59:11;7.97;;;7.13;;
10389;SDS011;5241;47.830;12.972;2023-04-02T20:01:37;5.83;;;5.23;;
10389;SDS011;5241;47.830;12.972;2023-04-02T20:04:03;7.20;;;6.27;;